createdAt,value
2022-12-03T00:00:53.753Z,98563.13
2022-12-03T00:03:20.710Z,98556.88
2022-12-03T00:05:49.152Z,98562.66
2022-12-03T00:08:16.009Z,98559.38
2022-12-03T00:10:42.538Z,98557.88
2022-12-03T00:13:09.813Z,98565.44
2022-12-03T00:15:36.272Z,98561.38
2022-12-03T00:18:02.735Z,98564.25
2022-12-03T00:20:29.130Z,98558.72
2022-12-03T00:22:55.667Z,98554.16
2022-12-03T00:25:22.040Z,98553.91
2022-12-03T00:27:48.449Z,98559.22
2022-12-03T00:30:14.980Z,98555.84
2022-12-03T00:32:41.456Z,98560.75
2022-12-03T00:35:08.785Z,98559.44
2022-12-03T00:37:35.336Z,98558.25
2022-12-03T00:40:04.383Z,98564.50
2022-12-03T00:42:30.975Z,98565.22
2022-12-03T00:44:57.273Z,98567.47
2022-12-03T00:47:23.820Z,98568.69
2022-12-03T00:49:50.353Z,98565.22
2022-12-03T00:52:16.810Z,98569.66
2022-12-03T00:54:43.200Z,98568.56
2022-12-03T00:57:09.647Z,98570.75
2022-12-03T00:59:36.219Z,98574.34
2022-12-03T01:02:02.625Z,98574.09
2022-12-03T01:04:29.542Z,98570.75
2022-12-03T01:06:55.999Z,98572.91
2022-12-03T01:09:22.380Z,98568.81
2022-12-03T01:11:48.768Z,98566.28
2022-12-03T01:14:17.404Z,98573.47
2022-12-03T01:16:44.158Z,98571.94
2022-12-03T01:19:11.271Z,98566.66
2022-12-03T01:21:37.859Z,98570.97
2022-12-03T01:24:04.816Z,98573.63
2022-12-03T01:26:31.246Z,98571.44
2022-12-03T01:28:57.671Z,98570.97
2022-12-03T01:31:42.478Z,98569.78
2022-12-03T01:34:08.960Z,98558.81
2022-12-03T01:36:35.415Z,98562.78
2022-12-03T01:39:03.578Z,98556.91
2022-12-03T01:41:31.252Z,98554.16
2022-12-03T01:43:58.611Z,98565.50
2022-12-03T01:46:30.469Z,98575.97
2022-12-03T01:48:56.997Z,98568.88
2022-12-03T01:51:23.653Z,98565.66
2022-12-03T01:53:50.732Z,98572.84
2022-12-03T01:56:18.558Z,98570.91
2022-12-03T01:58:46.468Z,98570.53
2022-12-03T02:01:15.591Z,98573.56
2022-12-03T02:03:42.619Z,98581.47
2022-12-03T02:06:17.936Z,98576.91
2022-12-03T02:08:45.460Z,98577.38
2022-12-03T02:11:24.567Z,98587.25
2022-12-03T02:13:54.777Z,98577.63
2022-12-03T02:16:21.745Z,98577.16
2022-12-03T02:18:48.662Z,98571.88
2022-12-03T02:21:38.971Z,98578.81
2022-12-03T02:24:26.983Z,98571.38
2022-12-03T02:26:53.447Z,98572.09
2022-12-03T02:29:19.923Z,98568.38
2022-12-03T02:31:46.614Z,98565.59
2022-12-03T02:34:43.228Z,98564.66
2022-12-03T02:37:14.053Z,98570.88
2022-12-03T02:39:44.042Z,98572.78
2022-12-03T02:42:29.691Z,98575.31
2022-12-03T02:45:04.885Z,98579.41
2022-12-03T02:47:35.175Z,98579.41
2022-12-03T02:50:02.518Z,98569.28
2022-12-03T02:52:29.248Z,98578.28
2022-12-03T02:54:56.031Z,98584.75
2022-12-03T02:57:22.950Z,98572.66
2022-12-03T02:59:49.456Z,98570.34
2022-12-03T03:02:16.363Z,98572.88
2022-12-03T03:04:43.875Z,98577.44
2022-12-03T03:07:10.486Z,98577.31
2022-12-03T03:09:36.961Z,98589.78
2022-12-03T03:12:03.584Z,98585.34
2022-12-03T03:14:29.907Z,98587.19
2022-12-03T03:16:57.913Z,98585.75
2022-12-03T03:19:28.569Z,98580.22
2022-12-03T03:21:55.000Z,98577.72
2022-12-03T03:24:22.137Z,98580.63
2022-12-03T03:26:49.536Z,98584.44
2022-12-03T03:29:16.193Z,98588.59
2022-12-03T03:31:43.777Z,98583.59
2022-12-03T03:34:10.483Z,98569.06
2022-12-03T03:36:37.518Z,98571.34
2022-12-03T03:39:05.703Z,98556.97
2022-12-03T03:41:33.844Z,98559.38
2022-12-03T03:44:00.454Z,98564.38
2022-12-03T03:46:27.621Z,98567.66
2022-12-03T03:48:54.393Z,98577.81
2022-12-03T03:51:21.407Z,98571.97
2022-12-03T03:53:49.857Z,98562.88
2022-12-03T03:56:18.883Z,98565.38
2022-12-03T03:58:45.319Z,98552.91
2022-12-03T04:01:13.863Z,98558.91
2022-12-03T04:03:40.874Z,98556.03
2022-12-03T04:06:08.184Z,98554.84
2022-12-03T04:08:34.619Z,98553.66
2022-12-03T04:11:19.623Z,98551.97
2022-12-03T04:13:46.046Z,98545.00
2022-12-03T04:16:12.730Z,98551.97
2022-12-03T04:18:45.009Z,98542.22
2022-12-03T04:21:38.841Z,98536.84
2022-12-03T04:24:06.655Z,98524.38
2022-12-03T04:26:51.723Z,98526.41
2022-12-03T04:29:18.884Z,98524.84
2022-12-03T04:32:04.091Z,98527.97
2022-12-03T04:34:50.025Z,98517.16
2022-12-03T04:37:19.034Z,98523.28
2022-12-03T04:39:45.510Z,98518.84
2022-12-03T04:42:11.935Z,98521.59
2022-12-03T04:44:38.364Z,98525.09
2022-12-03T04:47:13.604Z,98526.63
2022-12-03T04:49:42.947Z,98530.00
2022-12-03T04:52:11.411Z,98540.19
2022-12-03T04:54:39.092Z,98543.78
2022-12-03T04:57:06.092Z,98542.84
2022-12-03T04:59:32.822Z,98534.31
2022-12-03T05:01:59.290Z,98530.34
2022-12-03T05:04:26.266Z,98528.53
2022-12-03T05:06:52.678Z,98528.78
2022-12-03T05:09:19.456Z,98531.31
2022-12-03T05:11:45.889Z,98515.00
2022-12-03T05:14:12.392Z,98514.63
2022-12-03T05:16:39.763Z,98528.09
2022-12-03T05:19:07.828Z,98522.56
2022-12-03T05:21:34.441Z,98526.34
2022-12-03T05:24:00.913Z,98529.13
2022-12-03T05:26:27.303Z,98534.63
2022-12-03T05:28:53.707Z,98532.22
2022-12-03T05:31:20.228Z,98531.28
2022-12-03T05:33:46.687Z,98529.13
2022-12-03T05:36:13.341Z,98543.28
2022-12-03T05:38:39.693Z,98546.19
2022-12-03T05:41:26.275Z,98549.03
2022-12-03T05:43:52.717Z,98556.13
2022-12-03T05:46:19.295Z,98564.31
2022-12-03T05:48:45.833Z,98561.41
2022-12-03T05:51:12.207Z,98557.19
2022-12-03T05:53:38.671Z,98559.38
2022-12-03T05:56:05.744Z,98552.91
2022-12-03T05:58:32.259Z,98554.09
2022-12-03T06:00:58.635Z,98562.41
2022-12-03T06:03:25.410Z,98559.41
2022-12-03T06:05:51.854Z,98556.25
2022-12-03T06:08:18.340Z,98553.53
2022-12-03T06:10:44.750Z,98550.53
2022-12-03T06:13:11.143Z,98551.56
2022-12-03T06:15:43.446Z,98561.31
2022-12-03T06:18:10.304Z,98555.81
2022-12-03T06:20:36.697Z,98554.13
2022-12-03T06:23:03.109Z,98545.97
2022-12-03T06:25:29.495Z,98550.75
2022-12-03T06:27:55.906Z,98560.34
2022-12-03T06:30:22.285Z,98558.81
2022-12-03T06:32:48.689Z,98572.09
2022-12-03T06:35:15.172Z,98578.59
2022-12-03T06:37:41.535Z,98573.91
2022-12-03T06:40:08.738Z,98579.31
2022-12-03T06:42:35.176Z,98580.03
2022-12-03T06:45:01.681Z,98570.31
2022-12-03T06:47:29.539Z,98580.03
2022-12-03T06:49:55.923Z,98590.38
2022-12-03T06:52:22.428Z,98574.53
2022-12-03T06:54:48.816Z,98587.25
2022-12-03T06:57:15.301Z,98581.63
2022-12-03T06:59:42.498Z,98576.56
2022-12-03T07:02:10.154Z,98571.28
2022-12-03T07:04:36.593Z,98567.34
2022-12-03T07:07:03.044Z,98558.22
2022-12-03T07:09:29.695Z,98552.00
2022-12-03T07:11:57.006Z,98557.84
2022-12-03T07:14:23.457Z,98560.13
2022-12-03T07:16:49.907Z,98559.19
2022-12-03T07:19:16.632Z,98557.38
2022-12-03T07:21:43.086Z,98551.00
2022-12-03T07:24:09.696Z,98557.13
2022-12-03T07:26:36.327Z,98561.81
2022-12-03T07:29:02.773Z,98553.50
2022-12-03T07:31:29.367Z,98555.34
2022-12-03T07:33:56.118Z,98554.00
2022-12-03T07:36:23.823Z,98552.47
2022-12-03T07:38:50.211Z,98548.00
2022-12-03T07:41:16.613Z,98547.19
2022-12-03T07:43:44.671Z,98549.09
2022-12-03T07:46:11.211Z,98549.22
2022-12-03T07:48:38.994Z,98543.59
2022-12-03T07:51:05.528Z,98543.59
2022-12-03T07:53:31.917Z,98547.69
2022-12-03T07:55:58.395Z,98549.00
2022-12-03T07:58:24.850Z,98549.13
2022-12-03T08:00:51.374Z,98551.16
2022-12-03T08:03:17.809Z,98544.31
2022-12-03T08:05:45.601Z,98542.75
2022-12-03T08:08:12.294Z,98540.97
2022-12-03T08:10:39.161Z,98543.38
2022-12-03T08:13:12.968Z,98538.31
2022-12-03T08:15:39.869Z,98540.09
2022-12-03T08:18:16.644Z,98537.34
2022-12-03T08:20:46.095Z,98535.53
2022-12-03T08:23:24.359Z,98533.03
2022-12-03T08:25:52.619Z,98529.66
2022-12-03T08:28:25.656Z,98526.63
2022-12-03T08:31:07.232Z,98523.41
2022-12-03T08:33:36.637Z,98524.13
2022-12-03T08:36:25.303Z,98523.66
2022-12-03T08:39:38.008Z,98518.06
2022-12-03T08:42:26.835Z,98522.88
2022-12-03T08:44:54.722Z,98525.66
2022-12-03T08:47:23.530Z,98519.41
2022-12-03T08:49:55.903Z,98517.09
2022-12-03T08:52:26.708Z,98504.25
2022-12-03T08:54:55.601Z,98509.53
2022-12-03T08:57:32.004Z,98516.09
2022-12-03T09:00:17.307Z,98509.63
2022-12-03T09:02:51.280Z,98511.97
2022-12-03T09:05:25.888Z,98513.59
2022-12-03T09:07:52.412Z,98514.41
2022-12-03T09:10:18.821Z,98518.25
2022-12-03T09:12:45.248Z,98525.84
2022-12-03T09:15:11.737Z,98532.16
2022-12-03T09:17:38.814Z,98529.75
2022-12-03T09:20:06.513Z,98530.50
2022-12-03T09:22:33.072Z,98525.31
2022-12-03T09:24:59.676Z,98533.94
2022-12-03T09:27:26.061Z,98545.81
2022-12-03T09:29:52.441Z,98529.06
2022-12-03T09:32:19.169Z,98523.78
2022-12-03T09:34:45.829Z,98526.06
2022-12-03T09:37:12.159Z,98523.72
2022-12-03T09:39:38.546Z,98521.31
2022-12-03T09:42:05.368Z,98516.97
2022-12-03T09:44:35.393Z,98516.72
2022-12-03T09:47:04.095Z,98516.59
2022-12-03T09:49:32.566Z,98520.31
2022-12-03T09:52:01.715Z,98502.97
2022-12-03T09:54:29.788Z,98504.69
2022-12-03T09:57:00.328Z,98501.50
2022-12-03T09:59:31.652Z,98495.19
2022-12-03T10:01:58.498Z,98484.53
2022-12-03T10:04:25.049Z,98484.84
2022-12-03T10:06:51.507Z,98486.41
2022-12-03T10:09:24.374Z,98483.53
2022-12-03T10:11:51.290Z,98481.13
2022-12-03T10:14:19.680Z,98482.88
2022-12-03T10:16:46.458Z,98474.44
2022-12-03T10:19:21.720Z,98479.72
2022-12-03T10:21:48.468Z,98477.81
2022-12-03T10:24:32.079Z,98474.66
2022-12-03T10:27:01.401Z,98473.72
2022-12-03T10:29:34.089Z,98466.84
2022-12-03T10:32:12.698Z,98466.31
2022-12-03T10:34:40.911Z,98464.59
2022-12-03T10:37:21.871Z,98459.38
2022-12-03T10:39:57.644Z,98457.22
2022-12-03T10:42:29.961Z,98448.59
2022-12-03T10:45:15.342Z,98445.09
2022-12-03T10:47:43.566Z,98455.66
2022-12-03T10:50:20.026Z,98455.75
2022-12-03T10:52:47.858Z,98447.97
2022-12-03T10:55:15.822Z,98434.69
2022-12-03T10:57:46.162Z,98444.56
2022-12-03T11:00:20.369Z,98430.63
2022-12-03T11:02:56.149Z,98424.38
2022-12-03T11:05:29.458Z,98431.72
2022-12-03T11:07:56.453Z,98431.16
2022-12-03T11:10:23.466Z,98417.66
2022-12-03T11:13:34.079Z,98420.28
2022-12-03T11:16:03.033Z,98412.78
2022-12-03T11:18:35.716Z,98410.31
2022-12-03T11:21:14.875Z,98410.75
2022-12-03T11:23:44.524Z,98412.03
2022-12-03T11:26:37.231Z,98399.47
2022-12-03T11:29:05.004Z,98403.09
2022-12-03T11:31:43.359Z,98395.59
2022-12-03T11:34:17.241Z,98401.09
2022-12-03T11:37:12.988Z,98395.22
2022-12-03T11:39:52.457Z,98400.25
2022-12-03T11:42:28.613Z,98392.00
2022-12-03T11:45:04.578Z,98384.66
2022-12-03T11:47:41.496Z,98386.28
2022-12-03T11:50:21.635Z,98394.53
2022-12-03T11:52:53.085Z,98380.41
2022-12-03T11:55:28.807Z,98385.22
2022-12-03T11:58:00.382Z,98372.81
2022-12-03T12:00:27.182Z,98368.50
2022-12-03T12:02:55.633Z,98363.72
2022-12-03T12:05:25.173Z,98366.44
2022-12-03T12:07:54.008Z,98365.03
2022-12-03T12:10:41.036Z,98366.44
2022-12-03T12:13:27.640Z,98372.72
2022-12-03T12:15:54.919Z,98365.28
2022-12-03T12:18:43.092Z,98366.47
2022-12-03T12:21:47.958Z,98358.88
2022-12-03T12:24:40.595Z,98360.47
2022-12-03T12:27:11.625Z,98351.13
2022-12-03T12:29:41.489Z,98350.13
2022-12-03T12:32:12.313Z,98348.66
2022-12-03T12:34:51.148Z,98346.19
2022-12-03T12:37:23.380Z,98349.63
2022-12-03T12:39:54.856Z,98334.50
2022-12-03T12:42:35.076Z,98341.69
2022-12-03T12:45:07.521Z,98351.59
2022-12-03T12:47:36.136Z,98351.31
2022-12-03T12:50:10.539Z,98345.66
2022-12-03T12:52:49.639Z,98326.16
2022-12-03T12:55:17.342Z,98316.00
2022-12-03T12:57:45.137Z,98325.59
2022-12-03T13:00:20.638Z,98315.28
2022-12-03T13:02:59.697Z,98320.75
2022-12-03T13:05:32.988Z,98316.59
2022-12-03T13:07:59.537Z,98304.75
2022-12-03T13:10:35.100Z,98307.94
2022-12-03T13:13:30.842Z,98302.00
2022-12-03T13:16:01.343Z,98290.84
2022-12-03T13:18:38.560Z,98291.66
2022-12-03T13:21:13.339Z,98299.19
2022-12-03T13:23:40.539Z,98300.00
2022-12-03T13:26:38.593Z,98302.69
2022-12-03T13:29:15.553Z,98302.50
2022-12-03T13:31:48.667Z,98305.28
2022-12-03T13:34:20.796Z,98305.88
2022-12-03T13:36:53.548Z,98306.81
2022-12-03T13:39:30.815Z,98305.84
2022-12-03T13:42:24.056Z,98304.16
2022-12-03T13:44:53.072Z,98295.78
2022-12-03T13:47:22.069Z,98294.53
2022-12-03T13:49:58.214Z,98294.13
2022-12-03T13:52:25.973Z,98287.84
2022-12-03T13:54:55.838Z,98289.53
2022-12-03T13:57:23.024Z,98286.88
2022-12-03T13:59:49.655Z,98291.78
2022-12-03T14:02:16.200Z,98284.38
2022-12-03T14:04:42.724Z,98286.97
2022-12-03T14:07:09.154Z,98285.19
2022-12-03T14:09:35.587Z,98277.16
2022-12-03T14:12:22.154Z,98275.56
2022-12-03T14:14:49.433Z,98290.22
2022-12-03T14:17:15.921Z,98287.19
2022-12-03T14:19:42.358Z,98281.91
2022-12-03T14:22:09.923Z,98285.50
2022-12-03T14:24:37.507Z,98288.38
2022-12-03T14:27:04.020Z,98288.81
2022-12-03T14:29:30.611Z,98294.81
2022-12-03T14:31:57.220Z,98298.75
2022-12-03T14:34:25.045Z,98306.91
2022-12-03T14:36:51.476Z,98310.13
2022-12-03T14:39:17.907Z,98305.09
2022-12-03T14:42:03.034Z,98312.09
2022-12-03T14:44:29.466Z,98310.03
2022-12-03T14:46:57.468Z,98303.31
2022-12-03T14:49:24.640Z,98300.34
2022-12-03T14:51:51.069Z,98296.88
2022-12-03T14:54:18.807Z,98297.41
2022-12-03T14:56:45.215Z,98306.66
2022-12-03T14:59:11.635Z,98313.06
2022-12-03T15:01:38.172Z,98314.41
2022-12-03T15:04:05.615Z,98311.78
2022-12-03T15:06:32.420Z,98312.53
2022-12-03T15:08:58.873Z,98318.09
2022-12-03T15:11:25.297Z,98314.59
2022-12-03T15:13:51.828Z,98317.78
2022-12-03T15:16:18.152Z,98316.16
2022-12-03T15:18:45.420Z,98313.34
2022-12-03T15:21:11.775Z,98315.72
2022-12-03T15:23:38.623Z,98304.38
2022-12-03T15:26:05.233Z,98309.72
2022-12-03T15:28:31.575Z,98315.19
2022-12-03T15:30:58.063Z,98297.97
2022-12-03T15:33:24.629Z,98303.19
2022-12-03T15:35:51.583Z,98299.34
2022-12-03T15:38:18.100Z,98299.41
2022-12-03T15:40:44.797Z,98295.63
2022-12-03T15:43:11.708Z,98290.16
2022-12-03T15:45:38.217Z,98290.75
2022-12-03T15:48:05.370Z,98300.22
2022-12-03T15:50:35.776Z,98282.38
2022-12-03T15:53:06.338Z,98281.53
2022-12-03T15:55:32.893Z,98277.09
2022-12-03T15:57:59.244Z,98271.81
2022-12-03T16:00:25.644Z,98269.16
2022-12-03T16:02:53.053Z,98273.75
2022-12-03T16:05:20.110Z,98281.81
2022-12-03T16:07:46.624Z,98270.13
2022-12-03T16:10:13.510Z,98281.72
2022-12-03T16:12:40.229Z,98283.25
2022-12-03T16:15:06.896Z,98282.56
2022-12-03T16:17:33.725Z,98283.53
2022-12-03T16:20:00.240Z,98273.47
2022-12-03T16:22:27.143Z,98261.91
2022-12-03T16:24:53.708Z,98264.13
2022-12-03T16:27:25.317Z,98262.63
2022-12-03T16:29:52.763Z,98266.50
2022-12-03T16:32:20.119Z,98272.78
2022-12-03T16:34:46.659Z,98264.41
2022-12-03T16:37:13.205Z,98255.75
2022-12-03T16:39:47.418Z,98252.56
2022-12-03T16:42:17.140Z,98251.16
2022-12-03T16:45:04.246Z,98247.13
2022-12-03T16:47:34.164Z,98252.31
2022-12-03T16:50:02.334Z,98248.78
2022-12-03T16:52:28.994Z,98249.31
2022-12-03T16:54:55.407Z,98255.75
2022-12-03T16:57:21.807Z,98251.97
2022-12-03T16:59:48.475Z,98253.22
2022-12-03T17:02:14.953Z,98250.56
2022-12-03T17:04:43.005Z,98251.97
2022-12-03T17:07:09.698Z,98257.97
2022-12-03T17:09:36.161Z,98257.69
2022-12-03T17:12:02.664Z,98264.84
2022-12-03T17:14:33.222Z,98263.16
2022-12-03T17:17:00.309Z,98247.81
2022-12-03T17:19:26.864Z,98249.22
2022-12-03T17:21:54.070Z,98248.25
2022-12-03T17:24:21.405Z,98251.41
2022-12-03T17:26:48.337Z,98244.84
2022-12-03T17:29:15.106Z,98241.38
2022-12-03T17:31:42.910Z,98243.31
2022-12-03T17:34:10.221Z,98233.81
2022-12-03T17:36:37.690Z,98244.56
2022-12-03T17:39:04.264Z,98243.31
2022-12-03T17:41:31.537Z,98236.63
2022-12-03T17:43:57.931Z,98234.69
2022-12-03T17:46:24.699Z,98235.22
2022-12-03T17:48:52.050Z,98238.59
2022-12-03T17:51:20.747Z,98233.81
2022-12-03T17:53:47.159Z,98227.13
2022-12-03T17:56:13.668Z,98229.94
2022-12-03T17:58:40.090Z,98240.69
2022-12-03T18:01:08.490Z,98240.09
2022-12-03T18:03:35.029Z,98237.72
2022-12-03T18:06:01.483Z,98238.84
2022-12-03T18:08:28.168Z,98239.91
2022-12-03T18:10:54.647Z,98239.81
2022-12-03T18:13:21.125Z,98232.66
2022-12-03T18:15:47.930Z,98246.06
2022-12-03T18:18:14.376Z,98239.81
2022-12-03T18:20:40.861Z,98234.91
2022-12-03T18:23:07.310Z,98236.84
2022-12-03T18:25:33.759Z,98240.06
2022-12-03T18:28:00.221Z,98228.19
2022-12-03T18:30:26.672Z,98242.13
2022-12-03T18:32:53.153Z,98233.94
2022-12-03T18:35:20.612Z,98229.16
2022-12-03T18:37:49.262Z,98227.31
2022-12-03T18:40:23.612Z,98228.00
2022-12-03T18:42:50.342Z,98241.03
2022-12-03T18:45:16.815Z,98241.47
2022-12-03T18:47:43.660Z,98235.88
2022-12-03T18:50:11.471Z,98242.66
2022-12-03T18:52:38.346Z,98236.91
2022-12-03T18:55:06.118Z,98234.28
2022-12-03T18:57:32.579Z,98233.56
2022-12-03T18:59:59.405Z,98223.91
2022-12-03T19:02:54.190Z,98220.31
2022-12-03T19:05:12.604Z,98218.19
2022-12-03T19:07:39.011Z,98222.13
2022-12-03T19:10:06.872Z,98224.19
2022-12-03T19:12:33.378Z,98224.31
2022-12-03T19:14:59.866Z,98217.09
2022-12-03T19:17:27.243Z,98222.38
2022-12-03T19:19:54.714Z,98221.69
2022-12-03T19:22:21.699Z,98225.34
2022-12-03T19:24:48.213Z,98223.69
2022-12-03T19:27:15.056Z,98230.25
2022-12-03T19:29:41.825Z,98237.72
2022-12-03T19:32:08.882Z,98241.47
2022-12-03T19:34:35.748Z,98236.19
2022-12-03T19:37:02.191Z,98238.75
2022-12-03T19:39:28.708Z,98238.88
2022-12-03T19:41:55.161Z,98235.28
2022-12-03T19:44:21.734Z,98232.50
2022-12-03T19:46:51.100Z,98236.69
2022-12-03T19:49:20.845Z,98231.94
2022-12-03T19:51:47.584Z,98231.31
2022-12-03T19:54:14.916Z,98228.81
2022-12-03T19:56:41.495Z,98224.88
2022-12-03T19:59:08.109Z,98233.84
2022-12-03T20:01:36.349Z,98228.47
2022-12-03T20:04:04.035Z,98229.09
2022-12-03T20:06:33.924Z,98234.38
2022-12-03T20:09:03.758Z,98223.09
2022-12-03T20:11:33.134Z,98220.97
2022-12-03T20:14:03.257Z,98219.75
2022-12-03T20:16:30.684Z,98222.25
2022-12-03T20:18:59.930Z,98227.41
2022-12-03T20:21:30.045Z,98243.97
2022-12-03T20:23:56.548Z,98235.13
2022-12-03T20:26:23.965Z,98240.41
2022-12-03T20:28:52.600Z,98231.06
2022-12-03T20:31:21.632Z,98227.00
2022-12-03T20:33:50.765Z,98237.66
2022-12-03T20:36:19.588Z,98237.81
2022-12-03T20:38:46.996Z,98231.16
2022-12-03T20:41:21.080Z,98231.09
2022-12-03T20:43:48.306Z,98234.09
2022-12-03T20:46:16.206Z,98231.00
2022-12-03T20:48:44.418Z,98228.00
2022-12-03T20:51:13.899Z,98224.06
2022-12-03T20:53:40.835Z,98227.22
2022-12-03T20:56:08.551Z,98224.91
2022-12-03T20:58:35.835Z,98222.19
2022-12-03T21:01:15.963Z,98218.69
2022-12-03T21:03:43.947Z,98223.75
2022-12-03T21:06:11.237Z,98223.97
2022-12-03T21:08:42.619Z,98227.25
2022-12-03T21:11:14.603Z,98221.88
2022-12-03T21:13:43.505Z,98210.50
2022-12-03T21:16:13.271Z,98207.00
2022-12-03T21:18:39.929Z,98208.34
2022-12-03T21:21:06.792Z,98212.91
2022-12-03T21:23:33.719Z,98207.88
2022-12-03T21:26:15.439Z,98217.25
2022-12-03T21:28:48.910Z,98205.75
2022-12-03T21:31:25.680Z,98222.63
2022-12-03T21:33:56.716Z,98210.41
2022-12-03T21:36:24.335Z,98217.34
2022-12-03T21:38:51.073Z,98219.75
2022-12-03T21:41:19.306Z,98217.72
2022-12-03T21:43:46.414Z,98211.34
2022-12-03T21:47:12.530Z,98211.84
2022-12-03T21:49:03.528Z,98215.94
2022-12-03T21:51:29.980Z,98216.53
2022-12-03T21:53:56.503Z,98210.78
2022-12-03T21:56:22.986Z,98196.28
2022-12-03T21:58:49.453Z,98187.41
2022-12-03T22:01:22.052Z,98191.13
2022-12-03T22:03:49.242Z,98179.16
2022-12-03T22:06:16.772Z,98195.78
2022-12-03T22:08:43.979Z,98179.50
2022-12-03T22:11:13.290Z,98178.78
2022-12-03T22:13:40.225Z,98182.88
2022-12-03T22:16:09.380Z,98184.06
2022-12-03T22:18:36.368Z,98179.53
2022-12-03T22:21:08.415Z,98190.06
2022-12-03T22:23:35.047Z,98186.00
2022-12-03T22:26:06.422Z,98189.72
2022-12-03T22:28:33.799Z,98189.59
2022-12-03T22:31:05.943Z,98196.91
2022-12-03T22:33:32.463Z,98199.78
2022-12-03T22:36:04.967Z,98200.59
2022-12-03T22:38:32.410Z,98205.78
2022-12-03T22:40:59.205Z,98207.44
2022-12-03T22:43:26.082Z,98198.00
2022-12-03T22:45:56.487Z,98206.38
2022-12-03T22:48:24.194Z,98205.28
2022-12-03T22:50:52.086Z,98201.13
2022-12-03T22:53:20.265Z,98194.16
2022-12-03T22:55:58.385Z,98203.03
2022-12-03T22:58:26.364Z,98211.03
2022-12-03T23:00:52.922Z,98210.09
2022-12-03T23:03:19.373Z,98210.56
2022-12-03T23:05:46.066Z,98196.44
2022-12-03T23:08:15.122Z,98207.81
2022-12-03T23:10:43.833Z,98203.13
2022-12-03T23:13:11.537Z,98207.34
2022-12-03T23:15:43.050Z,98202.06
2022-12-03T23:18:09.704Z,98195.22
2022-12-03T23:20:45.094Z,98203.81
2022-12-03T23:23:14.464Z,98200.84
2022-12-03T23:25:41.396Z,98200.59
2022-12-03T23:28:08.671Z,98196.41
2022-12-03T23:30:37.128Z,98205.47
2022-12-03T23:33:04.872Z,98218.84
2022-12-03T23:35:32.220Z,98220.16
2022-12-03T23:37:58.705Z,98204.50
2022-12-03T23:40:25.135Z,98206.53
2022-12-03T23:42:51.588Z,98196.75
2022-12-03T23:45:18.033Z,98202.25
2022-12-03T23:47:44.666Z,98213.03
2022-12-03T23:50:11.738Z,98209.41
2022-12-03T23:52:38.366Z,98218.28
2022-12-03T23:55:05.327Z,98209.31
2022-12-03T23:57:32.295Z,98209.47
2022-12-03T23:59:58.806Z,98209.94
